createdAt,value
2018-11-22T00:00:11.737Z,32.80
2018-11-22T00:01:12.142Z,33.60
2018-11-22T00:02:12.415Z,33.20
2018-11-22T00:03:12.765Z,34.40
2018-11-22T00:04:13.029Z,32.60
2018-11-22T00:05:13.598Z,33.50
2018-11-22T00:06:13.571Z,32.50
2018-11-22T00:07:13.859Z,33.80
2018-11-22T00:08:14.113Z,34.50
2018-11-22T00:09:14.387Z,33.70
2018-11-22T00:10:14.951Z,34.60
2018-11-22T00:11:14.872Z,33.00
2018-11-22T00:12:15.139Z,33.20
2018-11-22T00:13:15.536Z,32.60
2018-11-22T00:14:15.819Z,33.80
2018-11-22T00:15:16.433Z,33.60
2018-11-22T00:16:16.396Z,33.30
2018-11-22T00:17:16.344Z,33.10
2018-11-22T00:18:16.611Z,31.80
2018-11-22T00:19:16.881Z,34.10
2018-11-22T00:20:17.527Z,33.90
2018-11-22T00:21:17.289Z,32.70
2018-11-22T00:22:17.582Z,33.40
2018-11-22T00:23:17.902Z,33.60
2018-11-22T00:24:18.430Z,33.40
2018-11-22T00:25:18.486Z,34.10
2018-11-22T00:26:18.887Z,32.90
2018-11-22T00:27:19.281Z,33.90
2018-11-22T00:28:19.172Z,33.30
2018-11-22T00:29:19.300Z,35.80
2018-11-22T00:30:19.456Z,33.90
2018-11-22T00:31:19.503Z,33.30
2018-11-22T00:32:19.631Z,33.60
2018-11-22T00:33:20.014Z,33.50
2018-11-22T00:34:20.224Z,33.30
2018-11-22T00:35:20.389Z,33.50
2018-11-22T00:36:20.382Z,33.60
2018-11-22T00:37:20.561Z,33.40
2018-11-22T00:38:20.680Z,33.50
2018-11-22T00:39:20.831Z,33.70
2018-11-22T00:40:20.979Z,32.70
2018-11-22T00:41:21.066Z,33.00
2018-11-22T00:42:21.119Z,31.70
2018-11-22T00:43:21.511Z,33.00
2018-11-22T00:44:21.680Z,30.60
2018-11-22T00:45:21.756Z,32.60
2018-11-22T00:46:21.983Z,31.60
2018-11-22T00:47:22.094Z,32.10
2018-11-22T00:49:22.207Z,31.50
2018-11-22T00:50:22.218Z,31.90
2018-11-22T00:51:22.356Z,33.00
2018-11-22T00:52:22.427Z,32.90
2018-11-22T00:53:22.492Z,31.70
2018-11-22T00:54:22.561Z,32.50
2018-11-22T00:55:22.630Z,31.90
2018-11-22T00:56:23.000Z,31.30
2018-11-22T00:58:23.079Z,30.70
2018-11-22T00:59:23.158Z,31.60
2018-11-22T01:00:23.290Z,30.90
2018-11-22T01:01:23.254Z,32.40
2018-11-22T01:02:23.320Z,31.00
2018-11-22T01:03:23.404Z,31.10
2018-11-22T01:04:23.465Z,32.10
2018-11-22T01:05:23.538Z,33.00
2018-11-22T01:06:23.859Z,34.10
2018-11-22T01:07:24.589Z,30.50
2018-11-22T01:08:24.716Z,31.70
2018-11-22T01:09:24.500Z,31.50
2018-11-22T01:10:24.782Z,31.70
2018-11-22T01:11:25.218Z,33.50
2018-11-22T01:12:25.487Z,31.90
2018-11-22T01:13:25.832Z,30.80
2018-11-22T01:14:26.145Z,32.70
2018-11-22T01:15:26.201Z,33.00
2018-11-22T01:16:26.470Z,33.20
2018-11-22T01:17:26.738Z,32.40
2018-11-22T01:18:27.000Z,33.40
2018-11-22T01:19:27.401Z,33.60
2018-11-22T01:20:27.635Z,33.00
2018-11-22T01:21:27.900Z,31.20
2018-11-22T01:22:28.190Z,33.00
2018-11-22T01:23:28.459Z,32.50
2018-11-22T01:24:28.718Z,33.60
2018-11-22T01:25:28.995Z,32.40
2018-11-22T01:26:29.281Z,32.00
2018-11-22T01:27:29.607Z,31.40
2018-11-22T01:28:29.867Z,30.90
2018-11-22T01:29:30.134Z,31.50
2018-11-22T01:30:30.444Z,30.90
2018-11-22T01:31:30.918Z,31.30
2018-11-22T01:32:31.197Z,33.80
2018-11-22T01:33:31.483Z,32.50
2018-11-22T01:34:31.777Z,33.50
2018-11-22T01:35:32.054Z,31.90
2018-11-22T01:36:32.338Z,32.80
2018-11-22T01:37:32.677Z,35.00
2018-11-22T01:38:33.181Z,34.90
2018-11-22T01:39:33.778Z,32.80
2018-11-22T01:40:33.870Z,31.30
2018-11-22T01:41:33.982Z,31.70
2018-11-22T01:42:34.101Z,31.90
2018-11-22T01:43:34.288Z,33.40
2018-11-22T01:44:34.404Z,30.20
2018-11-22T01:45:34.512Z,32.20
2018-11-22T01:46:34.638Z,32.10
2018-11-22T01:47:34.766Z,31.10
2018-11-22T01:48:35.126Z,32.90
2018-11-22T01:49:35.252Z,31.50
2018-11-22T01:50:35.389Z,31.70
2018-11-22T01:51:35.544Z,32.00
2018-11-22T01:52:35.693Z,35.10
2018-11-22T01:53:36.039Z,32.60
2018-11-22T01:54:36.160Z,32.60
2018-11-22T01:55:36.327Z,33.30
2018-11-22T01:56:36.479Z,31.00
2018-11-22T01:57:36.547Z,33.50
2018-11-22T01:58:36.874Z,32.10
2018-11-22T01:59:36.984Z,33.10
2018-11-22T02:00:37.089Z,32.30
2018-11-22T02:01:37.166Z,32.60
2018-11-22T02:02:37.230Z,33.80
2018-11-22T02:03:37.550Z,32.90
2018-11-22T02:04:37.623Z,33.00
2018-11-22T02:05:37.686Z,31.80
2018-11-22T02:06:37.747Z,32.00
2018-11-22T02:07:37.819Z,34.00
2018-11-22T02:08:38.036Z,33.20
2018-11-22T02:09:38.095Z,32.90
2018-11-22T02:10:38.167Z,32.40
2018-11-22T02:11:38.244Z,32.10
2018-11-22T02:12:38.569Z,33.20
2018-11-22T02:13:38.690Z,34.00
2018-11-22T02:14:38.757Z,34.10
2018-11-22T02:15:38.788Z,32.20
2018-11-22T02:16:38.828Z,33.20
2018-11-22T02:17:38.838Z,32.00
2018-11-22T02:20:39.017Z,33.70
2018-11-22T02:21:39.091Z,32.20
2018-11-22T02:22:39.116Z,33.40
2018-11-22T02:23:39.236Z,32.80
2018-11-22T02:24:39.497Z,32.20
2018-11-22T02:25:39.760Z,33.20
2018-11-22T02:26:40.022Z,31.80
2018-11-22T02:27:40.275Z,32.20
2018-11-22T02:28:40.666Z,32.00
2018-11-22T02:29:40.942Z,32.80
2018-11-22T02:30:41.233Z,31.70
2018-11-22T02:31:41.533Z,32.50
2018-11-22T02:32:41.837Z,32.60
2018-11-22T02:33:42.105Z,32.40
2018-11-22T02:34:42.412Z,32.10
2018-11-22T02:35:42.707Z,33.80
2018-11-22T02:36:43.037Z,31.80
2018-11-22T02:37:43.340Z,31.10
2018-11-22T02:38:43.683Z,32.40
2018-11-22T02:39:44.326Z,33.00
2018-11-22T02:40:44.097Z,32.70
2018-11-22T02:41:44.381Z,32.20
2018-11-22T02:42:44.642Z,31.60
2018-11-22T02:43:44.684Z,34.00
2018-11-22T02:44:45.032Z,32.00
2018-11-22T02:45:45.300Z,32.50
2018-11-22T02:46:45.578Z,33.80
2018-11-22T02:47:45.847Z,32.60
2018-11-22T02:48:46.115Z,30.50
2018-11-22T02:49:46.460Z,31.10
2018-11-22T02:50:46.730Z,30.70
2018-11-22T02:51:46.990Z,32.90
2018-11-22T02:52:47.258Z,33.10
2018-11-22T02:53:47.425Z,30.40
2018-11-22T02:54:47.931Z,29.80
2018-11-22T02:55:48.564Z,32.00
2018-11-22T02:56:48.659Z,30.90
2018-11-22T02:57:48.780Z,32.80
2018-11-22T02:58:48.856Z,30.20
2018-11-22T02:59:48.997Z,32.70
2018-11-22T03:00:49.114Z,31.60
2018-11-22T03:01:49.399Z,33.60
2018-11-22T03:02:49.548Z,30.70
2018-11-22T03:03:50.046Z,34.00
2018-11-22T03:04:50.176Z,30.90
2018-11-22T03:05:50.291Z,31.00
2018-11-22T03:06:50.467Z,29.90
2018-11-22T03:07:50.638Z,31.30
2018-11-22T03:08:50.812Z,28.40
2018-11-22T03:09:51.004Z,29.90
2018-11-22T03:10:51.099Z,31.80
2018-11-22T03:11:51.224Z,28.60
2018-11-22T03:12:51.287Z,29.80
2018-11-22T03:13:51.425Z,30.00
2018-11-22T03:14:51.495Z,31.10
2018-11-22T03:15:51.545Z,30.80
2018-11-22T03:16:51.646Z,27.50
2018-11-22T03:17:51.729Z,29.50
2018-11-22T03:18:51.773Z,30.10
2018-11-22T03:19:51.901Z,30.20
2018-11-22T03:20:52.017Z,29.10
2018-11-22T03:21:52.243Z,28.60
2018-11-22T03:22:52.312Z,30.80
2018-11-22T03:23:52.408Z,29.10
2018-11-22T03:24:52.469Z,29.00
2018-11-22T03:25:52.597Z,27.20
2018-11-22T03:26:52.661Z,27.00
2018-11-22T03:27:52.727Z,28.10
2018-11-22T03:28:53.081Z,27.00
2018-11-22T03:29:53.173Z,26.70
2018-11-22T03:30:53.249Z,28.90
2018-11-22T03:31:53.318Z,26.50
2018-11-22T03:32:53.429Z,28.40
2018-11-22T03:33:53.520Z,27.90
2018-11-22T03:34:53.596Z,27.20
2018-11-22T03:35:53.693Z,27.00
2018-11-22T03:36:53.750Z,27.50
2018-11-22T03:37:53.830Z,26.80
2018-11-22T03:38:53.778Z,27.50
2018-11-22T03:39:54.243Z,26.90
2018-11-22T03:40:54.601Z,26.70
2018-11-22T03:41:54.900Z,26.50
2018-11-22T03:42:55.167Z,25.80
2018-11-22T03:43:55.469Z,26.20
2018-11-22T03:44:55.743Z,25.80
2018-11-22T03:45:56.002Z,26.50
2018-11-22T03:46:56.273Z,26.60
2018-11-22T03:47:56.588Z,24.60
2018-11-22T03:48:56.863Z,26.20
2018-11-22T03:49:57.134Z,25.20
2018-11-22T03:50:57.397Z,23.40
2018-11-22T03:51:57.675Z,24.30
2018-11-22T03:52:57.923Z,23.10
2018-11-22T03:53:58.195Z,22.00
2018-11-22T03:54:58.465Z,23.80
2018-11-22T03:55:58.737Z,23.90
2018-11-22T03:56:59.112Z,25.30
2018-11-22T03:57:59.540Z,23.80
2018-11-22T03:59:00.059Z,24.80
2018-11-22T03:59:59.847Z,22.90
2018-11-22T04:01:00.182Z,23.20
2018-11-22T04:02:00.447Z,22.20
2018-11-22T04:03:00.948Z,22.40
2018-11-22T04:04:01.003Z,22.00
2018-11-22T04:05:01.095Z,21.80
2018-11-22T04:06:00.952Z,22.20
2018-11-22T04:07:01.247Z,22.40
2018-11-22T04:09:01.583Z,23.20
2018-11-22T04:10:01.972Z,24.00
2018-11-22T04:11:02.285Z,22.80
2018-11-22T04:12:02.320Z,23.80
2018-11-22T04:13:02.544Z,23.90
2018-11-22T04:14:02.592Z,24.20
2018-11-22T04:15:02.649Z,22.50
2018-11-22T04:16:02.852Z,22.20
2018-11-22T04:17:02.609Z,22.90
2018-11-22T04:18:03.156Z,22.30
2018-11-22T04:19:03.713Z,22.70
2018-11-22T04:20:03.822Z,21.90
2018-11-22T04:21:03.959Z,21.60
2018-11-22T04:22:04.096Z,23.10
2018-11-22T04:23:04.224Z,21.90
2018-11-22T04:24:04.390Z,21.20
2018-11-22T04:25:04.453Z,21.40
2018-11-22T04:26:04.611Z,19.10
2018-11-22T04:27:04.739Z,20.90
2018-11-22T04:28:04.873Z,20.80
2018-11-22T04:29:04.852Z,21.00
2018-11-22T04:30:05.148Z,20.20
2018-11-22T04:31:05.537Z,19.30
2018-11-22T04:32:05.680Z,19.70
2018-11-22T04:33:05.795Z,20.10
2018-11-22T04:34:05.875Z,18.20
2018-11-22T04:35:05.971Z,19.60
2018-11-22T04:36:06.240Z,20.70
2018-11-22T04:37:06.278Z,20.60
2018-11-22T04:38:06.358Z,18.70
2018-11-22T04:39:06.479Z,18.90
2018-11-22T04:40:06.705Z,19.10
2018-11-22T04:41:06.836Z,20.10
2018-11-22T04:42:06.884Z,19.40
2018-11-22T04:43:07.005Z,19.80
2018-11-22T04:44:07.127Z,19.50
2018-11-22T04:45:07.262Z,19.00
2018-11-22T04:46:07.468Z,19.60
2018-11-22T04:47:07.528Z,19.90
2018-11-22T04:48:07.378Z,19.00
2018-11-22T04:49:07.951Z,19.70
2018-11-22T04:50:08.027Z,18.20
2018-11-22T04:51:08.217Z,17.90
2018-11-22T04:52:08.786Z,18.90
2018-11-22T04:53:08.876Z,18.20
2018-11-22T04:54:08.940Z,18.20
2018-11-22T04:55:08.923Z,18.10
2018-11-22T04:56:09.356Z,18.40
2018-11-22T04:57:09.347Z,18.40
2018-11-22T04:58:09.631Z,18.30
2018-11-22T04:59:09.891Z,18.10
2018-11-22T05:00:10.159Z,18.10
2018-11-22T05:01:10.562Z,18.00
2018-11-22T05:02:10.839Z,18.00
2018-11-22T05:03:11.108Z,17.90
2018-11-22T05:04:11.666Z,17.90
2018-11-22T05:05:12.128Z,18.10
2018-11-22T05:06:12.346Z,18.10
2018-11-22T05:07:12.617Z,19.00
2018-11-22T05:08:12.881Z,18.60
2018-11-22T05:09:13.167Z,19.10
2018-11-22T05:10:13.452Z,17.30
2018-11-22T05:11:13.464Z,18.70
2018-11-22T05:12:13.799Z,17.60
2018-11-22T05:13:14.190Z,19.20
2018-11-22T05:14:14.453Z,17.70
2018-11-22T05:15:15.093Z,18.40
2018-11-22T05:16:15.243Z,18.30
2018-11-22T05:17:15.518Z,18.70
2018-11-22T05:18:15.785Z,17.60
2018-11-22T05:19:16.131Z,17.10
2018-11-22T05:20:16.727Z,20.40
2018-11-22T05:21:16.724Z,18.30
2018-11-22T05:22:17.009Z,17.80
2018-11-22T05:23:17.310Z,17.10
2018-11-22T05:24:17.586Z,19.00
2018-11-22T05:25:17.870Z,18.40
2018-11-22T05:26:18.474Z,18.40
2018-11-22T05:27:18.525Z,18.90
2018-11-22T05:28:18.573Z,18.50
2018-11-22T05:29:18.657Z,18.40
2018-11-22T05:30:18.763Z,19.90
2018-11-22T05:31:18.992Z,17.40
2018-11-22T05:32:19.100Z,19.00
2018-11-22T05:33:19.172Z,19.80
2018-11-22T05:34:19.304Z,19.30
2018-11-22T05:35:19.446Z,18.40
2018-11-22T05:36:19.765Z,18.80
2018-11-22T05:37:19.883Z,18.40
2018-11-22T05:38:20.010Z,19.00
2018-11-22T05:39:20.175Z,18.40
2018-11-22T05:40:20.340Z,18.90
2018-11-22T05:41:20.794Z,18.80
2018-11-22T05:42:20.909Z,18.00
2018-11-22T05:43:21.019Z,19.20
2018-11-22T05:44:21.100Z,18.90
2018-11-22T05:45:21.199Z,19.30
2018-11-22T05:46:21.271Z,18.20
2018-11-22T05:47:21.345Z,20.30
2018-11-22T05:48:21.418Z,20.00
2018-11-22T05:49:21.475Z,19.10
2018-11-22T05:50:21.574Z,19.10
2018-11-22T05:51:21.408Z,20.20
2018-11-22T05:52:22.080Z,18.90
2018-11-22T05:53:22.193Z,19.80
2018-11-22T05:54:22.306Z,19.30
2018-11-22T05:55:22.413Z,19.70
2018-11-22T05:56:22.519Z,19.70
2018-11-22T05:57:22.581Z,20.20
2018-11-22T05:58:22.658Z,19.70
2018-11-22T05:59:22.863Z,20.80
2018-11-22T06:00:22.938Z,20.80
2018-11-22T06:01:23.035Z,19.60
2018-11-22T06:02:23.106Z,20.00
2018-11-22T06:03:23.183Z,20.60
2018-11-22T06:04:23.286Z,20.70
2018-11-22T06:05:23.395Z,20.30
2018-11-22T06:06:23.690Z,19.70
2018-11-22T06:07:23.819Z,19.90
2018-11-22T06:08:23.898Z,21.50
2018-11-22T06:09:23.944Z,21.70
2018-11-22T06:10:23.937Z,21.70
2018-11-22T06:11:24.026Z,21.50
2018-11-22T06:12:24.010Z,21.10
2018-11-22T06:13:24.290Z,21.20
2018-11-22T06:14:24.563Z,20.90
2018-11-22T06:15:24.829Z,21.30
2018-11-22T06:16:25.186Z,21.00
2018-11-22T06:17:25.555Z,21.80
2018-11-22T06:18:25.835Z,20.10
2018-11-22T06:19:26.134Z,20.80
2018-11-22T06:20:26.415Z,21.00
2018-11-22T06:21:26.461Z,21.80
2018-11-22T06:22:26.749Z,19.90
2018-11-22T06:23:26.758Z,21.10
2018-11-22T06:24:27.274Z,21.40
2018-11-22T06:25:27.761Z,20.60
2018-11-22T06:26:28.039Z,21.20
2018-11-22T06:27:28.341Z,21.20
2018-11-22T06:29:28.653Z,21.60
2018-11-22T06:30:28.921Z,21.40
2018-11-22T06:31:29.418Z,21.70
2018-11-22T06:32:29.820Z,21.60
2018-11-22T06:33:30.097Z,21.70
2018-11-22T06:34:30.380Z,22.90
2018-11-22T06:35:30.667Z,22.50
2018-11-22T06:36:30.985Z,22.20
2018-11-22T06:37:31.270Z,21.70
2018-11-22T06:38:31.590Z,20.70
2018-11-22T06:39:31.888Z,21.80
2018-11-22T06:40:32.212Z,22.50
2018-11-22T06:41:32.602Z,25.00
2018-11-22T06:42:33.105Z,23.00
2018-11-22T06:43:33.680Z,23.60
2018-11-22T06:44:33.796Z,23.60
2018-11-22T06:45:33.931Z,23.00
2018-11-22T06:46:34.136Z,23.70
2018-11-22T06:47:34.239Z,24.00
2018-11-22T06:48:34.370Z,23.40
2018-11-22T06:49:34.525Z,23.50
2018-11-22T06:50:34.693Z,23.60
2018-11-22T06:51:34.858Z,23.30
2018-11-22T06:52:34.970Z,24.50
2018-11-22T06:53:35.201Z,25.40
2018-11-22T06:54:35.342Z,24.80
2018-11-22T06:56:35.528Z,23.90
2018-11-22T06:57:35.659Z,23.40
2018-11-22T06:58:35.814Z,22.90
2018-11-22T06:59:35.963Z,23.00
2018-11-22T07:00:36.053Z,24.60
2018-11-22T07:01:36.165Z,23.70
2018-11-22T07:02:36.264Z,22.50
2018-11-22T07:03:36.411Z,23.20
2018-11-22T07:04:36.515Z,23.90
2018-11-22T07:05:36.604Z,23.70
2018-11-22T07:06:36.670Z,24.10
2018-11-22T07:07:36.819Z,25.40
2018-11-22T07:08:37.231Z,23.60
2018-11-22T07:09:37.302Z,24.60
2018-11-22T07:10:37.378Z,24.10
2018-11-22T07:11:37.453Z,24.30
2018-11-22T07:12:37.563Z,24.80
2018-11-22T07:13:37.789Z,24.00
2018-11-22T07:14:37.851Z,24.30
2018-11-22T07:15:38.301Z,23.80
2018-11-22T07:16:38.393Z,25.20
2018-11-22T07:17:38.465Z,24.40
2018-11-22T07:18:38.567Z,25.00
2018-11-22T07:19:38.839Z,25.40
2018-11-22T07:20:38.946Z,24.90
2018-11-22T07:21:39.027Z,24.90
2018-11-22T07:22:39.017Z,25.20
2018-11-22T07:23:39.315Z,24.20
2018-11-22T07:24:39.685Z,25.80
2018-11-22T07:25:39.989Z,25.60
2018-11-22T07:26:40.273Z,25.00
2018-11-22T07:27:40.770Z,23.70
2018-11-22T07:28:40.782Z,26.10
2018-11-22T07:29:41.067Z,24.80
2018-11-22T07:30:42.429Z,25.10
2018-11-22T07:31:41.594Z,25.20
2018-11-22T07:32:41.873Z,25.90
2018-11-22T07:33:42.280Z,24.70
2018-11-22T07:34:42.572Z,25.50
2018-11-22T07:35:43.111Z,24.70
2018-11-22T07:36:43.396Z,25.50
2018-11-22T07:37:43.846Z,26.60
2018-11-22T07:38:43.857Z,26.40
2018-11-22T07:39:44.439Z,26.20
2018-11-22T07:40:44.220Z,26.40
2018-11-22T07:41:44.478Z,27.90
2018-11-22T07:42:50.491Z,27.60
2018-11-22T07:43:45.100Z,28.00
2018-11-22T07:44:45.408Z,26.60
2018-11-22T07:45:45.673Z,28.50
2018-11-22T07:46:46.060Z,27.10
2018-11-22T07:47:46.101Z,26.90
2018-11-22T07:48:46.451Z,26.80
2018-11-22T07:49:46.728Z,26.90
2018-11-22T07:50:47.000Z,26.90
2018-11-22T07:51:47.261Z,26.50
2018-11-22T07:52:47.593Z,27.00
2018-11-22T07:53:48.183Z,26.80
2018-11-22T07:54:48.093Z,26.90
2018-11-22T07:55:48.774Z,25.90
2018-11-22T07:56:48.954Z,26.40
2018-11-22T07:57:49.109Z,25.80
2018-11-22T07:58:49.223Z,26.10
2018-11-22T07:59:49.445Z,27.50
2018-11-22T08:00:49.559Z,26.00
2018-11-22T08:01:49.680Z,27.10
2018-11-22T08:02:49.819Z,25.80
2018-11-22T08:03:50.099Z,26.50
2018-11-22T08:04:50.338Z,27.30
2018-11-22T08:05:50.530Z,26.50
2018-11-22T08:06:50.672Z,26.10
2018-11-22T08:07:50.853Z,26.00
2018-11-22T08:08:51.061Z,25.80
2018-11-22T08:09:51.152Z,26.10
2018-11-22T08:10:51.250Z,26.50
2018-11-22T08:11:51.367Z,25.80
2018-11-22T08:12:51.565Z,25.60
2018-11-22T08:13:51.872Z,26.60
2018-11-22T08:14:51.996Z,27.30
2018-11-22T08:15:52.096Z,27.50
2018-11-22T08:16:52.233Z,26.90
2018-11-22T08:17:52.336Z,26.90
2018-11-22T08:18:52.448Z,26.90
2018-11-22T08:19:52.535Z,27.90
2018-11-22T08:20:52.642Z,27.20
2018-11-22T08:21:52.729Z,27.20
2018-11-22T08:22:52.828Z,27.20
2018-11-22T08:23:53.222Z,28.40
2018-11-22T08:24:53.324Z,25.60
2018-11-22T08:25:53.422Z,27.90
2018-11-22T08:26:53.497Z,27.50
2018-11-22T08:27:53.587Z,27.60
2018-11-22T08:28:53.683Z,26.80
2018-11-22T08:29:53.768Z,27.60
2018-11-22T08:30:53.876Z,26.10
2018-11-22T08:31:53.857Z,28.00
2018-11-22T08:32:54.230Z,26.10
2018-11-22T08:33:54.570Z,27.00
2018-11-22T08:34:54.842Z,26.80
2018-11-22T08:35:55.199Z,27.50
2018-11-22T08:36:55.455Z,25.50
2018-11-22T08:37:55.739Z,27.50
2018-11-22T08:38:56.027Z,29.00
2018-11-22T08:40:56.649Z,26.30
2018-11-22T08:41:56.960Z,26.20
2018-11-22T08:42:57.244Z,26.50
2018-11-22T08:43:57.650Z,27.50
2018-11-22T08:44:57.924Z,26.00
2018-11-22T08:45:58.262Z,26.50
2018-11-22T08:46:58.523Z,26.10
2018-11-22T08:47:58.812Z,26.00
2018-11-22T08:48:59.118Z,26.10
2018-11-22T08:49:59.399Z,24.70
2018-11-22T08:50:59.656Z,25.80
2018-11-22T08:51:59.927Z,24.40
2018-11-22T08:53:00.233Z,26.10
2018-11-22T08:54:00.318Z,25.00
2018-11-22T08:55:00.589Z,26.00
2018-11-22T08:56:00.874Z,25.50
2018-11-22T08:57:01.262Z,25.70
2018-11-22T08:58:01.573Z,26.30
2018-11-22T08:59:01.840Z,25.70
2018-11-22T09:00:02.165Z,24.40
2018-11-22T09:01:02.363Z,25.30
2018-11-22T09:02:02.406Z,25.80
2018-11-22T09:03:02.766Z,26.10
2018-11-22T09:04:02.642Z,26.70
2018-11-22T09:05:02.720Z,25.70
2018-11-22T09:06:03.111Z,26.10
2018-11-22T09:07:03.232Z,24.20
2018-11-22T09:08:03.528Z,25.50
2018-11-22T09:09:03.695Z,24.40
2018-11-22T09:10:04.127Z,25.00
2018-11-22T09:11:04.439Z,26.20
2018-11-22T09:12:04.567Z,26.40
2018-11-22T09:13:04.732Z,25.70
2018-11-22T09:14:04.885Z,26.30
2018-11-22T09:15:05.090Z,26.30
2018-11-22T09:16:05.100Z,26.00
2018-11-22T09:17:05.226Z,26.10
2018-11-22T09:18:05.317Z,25.40
2018-11-22T09:19:05.480Z,25.30
2018-11-22T09:20:05.637Z,26.60
2018-11-22T09:21:05.876Z,26.20
2018-11-22T09:22:06.010Z,27.20
2018-11-22T09:23:06.122Z,26.00
2018-11-22T09:24:08.666Z,26.20
2018-11-22T09:25:06.182Z,25.90
2018-11-22T09:26:06.804Z,24.10
2018-11-22T09:27:07.001Z,25.10
2018-11-22T09:28:07.123Z,25.90
2018-11-22T09:29:07.215Z,23.90
2018-11-22T09:30:07.294Z,25.70
2018-11-22T09:31:07.655Z,26.10
2018-11-22T09:32:07.660Z,24.90
2018-11-22T09:33:07.740Z,26.00
2018-11-22T09:34:07.840Z,25.70
2018-11-22T09:35:07.963Z,25.10
2018-11-22T09:36:08.063Z,25.70
2018-11-22T09:37:08.102Z,25.70
2018-11-22T09:38:08.006Z,25.80
2018-11-22T09:39:08.665Z,24.90
2018-11-22T09:40:08.600Z,26.60
2018-11-22T09:41:09.149Z,25.30
2018-11-22T09:42:09.390Z,25.20
2018-11-22T09:43:09.294Z,25.30
2018-11-22T09:44:09.771Z,25.80
2018-11-22T09:45:10.233Z,24.00
2018-11-22T09:46:10.219Z,23.70
2018-11-22T09:47:10.574Z,23.10
2018-11-22T09:48:10.889Z,22.70
2018-11-22T09:49:11.165Z,22.20
2018-11-22T09:50:11.620Z,21.80
2018-11-22T09:51:11.789Z,23.50
2018-11-22T09:52:11.990Z,22.60
2018-11-22T09:53:12.478Z,21.40
2018-11-22T09:54:12.749Z,22.00
2018-11-22T09:55:13.355Z,22.70
2018-11-22T09:56:13.586Z,21.30
2018-11-22T09:57:13.870Z,21.80
2018-11-22T09:58:14.153Z,20.90
2018-11-22T09:59:14.604Z,21.00
2018-11-22T10:00:15.095Z,19.90
2018-11-22T10:01:14.875Z,19.90
2018-11-22T10:02:15.193Z,18.10
2018-11-22T10:03:15.604Z,18.40
2018-11-22T10:04:15.809Z,17.80
2018-11-22T10:05:16.644Z,17.00
2018-11-22T10:06:16.322Z,16.80
2018-11-22T10:07:16.600Z,15.80
2018-11-22T10:08:16.876Z,15.60
2018-11-22T10:09:17.301Z,16.30
2018-11-22T10:10:17.893Z,15.40
2018-11-22T10:11:17.585Z,15.30
2018-11-22T10:12:17.918Z,15.70
2018-11-22T10:13:18.442Z,15.00
2018-11-22T10:14:18.500Z,15.20
2018-11-22T10:15:18.603Z,16.20
2018-11-22T10:16:18.741Z,15.70
2018-11-22T10:17:18.887Z,14.80
2018-11-22T10:18:18.970Z,14.90
2018-11-22T10:19:19.068Z,15.40
2018-11-22T10:20:19.197Z,15.10
2018-11-22T10:21:19.309Z,14.50
2018-11-22T10:22:19.455Z,15.30
2018-11-22T10:23:19.580Z,15.20
2018-11-22T10:24:19.751Z,15.30
2018-11-22T10:25:19.887Z,14.90
2018-11-22T10:26:20.034Z,15.40
2018-11-22T10:27:20.211Z,14.80
2018-11-22T10:28:20.326Z,14.50
2018-11-22T10:29:20.474Z,14.60
2018-11-22T10:30:20.658Z,14.70
2018-11-22T10:31:20.770Z,14.70
2018-11-22T10:32:20.949Z,15.20
2018-11-22T10:33:21.052Z,14.30
2018-11-22T10:34:21.136Z,15.70
2018-11-22T10:35:21.244Z,14.40
2018-11-22T10:36:21.682Z,14.40
2018-11-22T10:37:21.842Z,13.70
2018-11-22T10:38:22.117Z,13.90
2018-11-22T10:39:22.172Z,14.50
2018-11-22T10:40:22.286Z,14.70
2018-11-22T10:41:22.586Z,14.60
2018-11-22T10:42:22.700Z,14.60
2018-11-22T10:43:22.756Z,14.00
2018-11-22T10:44:22.864Z,13.90
2018-11-22T10:45:22.996Z,15.40
2018-11-22T10:46:23.089Z,14.10
2018-11-22T10:47:23.204Z,15.60
2018-11-22T10:48:23.299Z,14.00
2018-11-22T10:49:23.387Z,13.00
2018-11-22T10:50:23.465Z,14.40
2018-11-22T10:51:23.635Z,13.40
2018-11-22T10:52:23.714Z,13.20
2018-11-22T10:53:23.799Z,13.90
2018-11-22T10:54:23.776Z,14.00
2018-11-22T10:55:24.129Z,13.20
2018-11-22T10:56:24.230Z,13.10
2018-11-22T10:57:24.512Z,15.10
2018-11-22T10:58:24.932Z,13.50
2018-11-22T10:59:25.458Z,13.70
2018-11-22T11:00:25.408Z,14.70
2018-11-22T11:01:25.360Z,13.70
2018-11-22T11:02:25.793Z,14.50
2018-11-22T11:03:25.977Z,13.50
2018-11-22T11:04:26.389Z,14.70
2018-11-22T11:05:26.789Z,13.00
2018-11-22T11:06:27.286Z,14.00
2018-11-22T11:07:27.699Z,13.90
2018-11-22T11:08:28.142Z,13.30
2018-11-22T11:09:28.320Z,13.40
2018-11-22T11:10:28.607Z,13.50
2018-11-22T11:11:28.989Z,13.60
2018-11-22T11:12:30.272Z,13.60
2018-11-22T11:13:29.549Z,13.50
2018-11-22T11:14:29.851Z,12.90
2018-11-22T11:15:30.120Z,13.90
2018-11-22T11:16:30.461Z,12.40
2018-11-22T11:17:30.742Z,13.30
2018-11-22T11:18:31.005Z,14.10
2018-11-22T11:19:31.276Z,12.70
2018-11-22T11:20:31.540Z,13.70
2018-11-22T11:21:31.841Z,11.90
2018-11-22T11:22:32.136Z,13.00
2018-11-22T11:23:32.433Z,13.50
2018-11-22T11:24:33.195Z,12.30
2018-11-22T11:25:33.036Z,13.60
2018-11-22T11:26:33.630Z,13.20
2018-11-22T11:27:33.735Z,12.30
2018-11-22T11:28:33.909Z,11.90
2018-11-22T11:29:34.030Z,12.10
2018-11-22T11:30:34.152Z,11.90
2018-11-22T11:31:34.289Z,12.00
2018-11-22T11:32:34.416Z,11.70
2018-11-22T11:33:34.560Z,13.40
2018-11-22T11:34:34.845Z,12.60
2018-11-22T11:35:34.992Z,12.00
2018-11-22T11:36:35.127Z,13.10
2018-11-22T11:37:35.256Z,13.00
2018-11-22T11:38:35.437Z,13.60
2018-11-22T11:39:35.669Z,11.70
2018-11-22T11:40:35.836Z,14.10
2018-11-22T11:41:36.297Z,12.50
2018-11-22T11:42:36.387Z,11.80
2018-11-22T11:43:36.479Z,13.70
2018-11-22T11:44:36.594Z,13.10
2018-11-22T11:45:36.687Z,12.30
2018-11-22T11:46:36.964Z,12.60
2018-11-22T11:47:37.121Z,12.60
2018-11-22T11:48:37.259Z,12.60
2018-11-22T11:49:37.400Z,11.70
2018-11-22T11:50:37.486Z,12.70
2018-11-22T11:51:37.563Z,12.00
2018-11-22T11:52:37.693Z,12.40
2018-11-22T11:53:41.533Z,12.60
2018-11-22T11:54:38.061Z,11.80
2018-11-22T11:55:38.136Z,12.20
2018-11-22T11:56:38.205Z,11.90
2018-11-22T11:57:38.333Z,11.80
2018-11-22T11:58:38.461Z,10.80
2018-11-22T11:59:38.610Z,11.70
2018-11-22T12:00:38.734Z,11.80
2018-11-22T12:01:38.840Z,11.60
2018-11-22T12:02:38.912Z,11.10
2018-11-22T12:03:39.176Z,11.40
2018-11-22T12:04:39.449Z,11.50
2018-11-22T12:05:39.727Z,11.10
2018-11-22T12:06:39.871Z,11.50
2018-11-22T12:07:40.163Z,11.30
2018-11-22T12:08:40.446Z,11.00
2018-11-22T12:09:41.014Z,10.50
2018-11-22T12:10:40.780Z,11.60
2018-11-22T12:11:41.044Z,11.20
2018-11-22T12:12:41.365Z,12.10
2018-11-22T12:13:41.629Z,11.90
2018-11-22T12:14:41.950Z,10.90
2018-11-22T12:15:42.414Z,11.50
2018-11-22T12:16:42.719Z,11.00
2018-11-22T12:17:43.189Z,10.90
2018-11-22T12:18:43.481Z,10.20
2018-11-22T12:19:43.914Z,11.60
2018-11-22T12:20:44.391Z,11.00
2018-11-22T12:21:44.679Z,10.90
2018-11-22T12:22:44.982Z,10.50
2018-11-22T12:23:45.088Z,11.80
2018-11-22T12:24:45.355Z,10.40
2018-11-22T12:25:45.627Z,11.00
2018-11-22T12:26:45.907Z,10.90
2018-11-22T12:27:46.281Z,11.40
2018-11-22T12:28:46.462Z,11.50
2018-11-22T12:29:46.753Z,11.10
2018-11-22T12:30:47.021Z,11.90
2018-11-22T12:31:47.547Z,11.50
2018-11-22T12:32:47.315Z,10.80
2018-11-22T12:33:47.762Z,11.30
2018-11-22T12:34:48.483Z,11.40
2018-11-22T12:35:48.905Z,10.90
2018-11-22T12:36:49.382Z,11.10
2018-11-22T12:37:49.684Z,11.40
2018-11-22T12:38:50.011Z,11.60
2018-11-22T12:39:50.216Z,12.10
2018-11-22T12:40:50.362Z,11.20
2018-11-22T12:41:50.574Z,12.10
2018-11-22T12:42:50.736Z,11.50
2018-11-22T12:43:50.895Z,11.60
2018-11-22T12:44:50.976Z,11.90
2018-11-22T12:45:51.472Z,11.40
2018-11-22T12:46:51.551Z,11.50
2018-11-22T12:47:51.666Z,11.20
2018-11-22T12:48:51.776Z,11.10
2018-11-22T12:49:51.860Z,11.00
2018-11-22T12:50:51.941Z,10.10
2018-11-22T12:51:52.126Z,10.70
2018-11-22T12:52:52.346Z,12.30
2018-11-22T12:53:52.505Z,11.30
2018-11-22T12:54:52.626Z,11.50
2018-11-22T12:55:52.752Z,11.40
2018-11-22T12:56:52.823Z,10.80
2018-11-22T12:57:52.900Z,10.90
2018-11-22T12:58:53.077Z,10.60
2018-11-22T12:59:53.085Z,11.50
2018-11-22T13:00:54.013Z,10.80
2018-11-22T13:01:54.357Z,11.30
2018-11-22T13:02:53.970Z,11.40